Terminal Aerodrome Forecast
Issued by NWS Newport/Morehead City, NC

Home | Current Version | Previous Version | Graphics & Text | Print | Product List | Glossary On
Versions: 1 2 3 4 5 6 7 8 9 10 11 12 13 14 15 16 17 18 19 20 21 22 23 24 25 26
000
FTUS42 KMHX 131700
TAFEWN
TAF
KEWN 131727Z 1318/1418 19005KT P6SM BKN035
      TEMPO 1320/1324 3SM TSRA BKN020CB
     FM140000 VRB05KT P6SM VCTS OVC035CB
     FM140600 02003KT 5SM BR OVC007
     FM141300 04009KT P6SM OVC015=

USA.gov is the U.S. government's official web portal to all federal, state and local government web resources and services.